This is the latest recevied weather packets stored in our database for station/object W5HKR. If no packets are shown the sender has not sent any weather packets the latest 10 day(s).
| Time | Temp. | Humidity | Pressure | Rain* | Wind** | Luminosity | Snow |
|---|---|---|---|---|---|---|---|
| 1777937008 | 18.33° C | 91% | 990.6 hPa | 0 mm | - | - | - |
| 1777936707 | 27.78° C | 60% | 981.4 hPa | 0 mm | - | - | - |
| 1777936558 | 18.33° C | 91% | 990.6 hPa | 0 mm | - | - | - |
| 1777936407 | 18.33° C | 91% | 990.6 hPa | 0 mm | - | - | - |
| 1777936108 | 18.33° C | 91% | 990.6 hPa | 0 mm | - | - | - |
| 1777935809 | 18.33° C | 91% | 990.6 hPa | 0 mm | - | - | - |
| 1777935478 | 27.22° C | 61% | 982.4 hPa | 0 mm | - | - | - |
| 1777935209 | 18.33° C | 91% | 990.6 hPa | 0 mm | - | - | - |
| 1777934908 | 27.22° C | 61% | 982.1 hPa | 0 mm | - | - | - |
| 1777934609 | 18.33° C | 91% | 990.6 hPa | 0 mm | - | - | - |
| 1777934399 | 18.33° C | 91% | 990.6 hPa | 0 mm | - | - | - |
| 1777934307 | 18.33° C | 91% | 990.6 hPa | 0 mm | - | - | - |
| 1777934007 | 18.33° C | 91% | 990.6 hPa | 0 mm | - | - | - |
| 1777933708 | 26.67° C | 62% | 982.1 hPa | 0 mm | - | - | - |
| 1777933408 | 27.22° C | 61% | 982.1 hPa | 0 mm | - | - | - |
| 1777933318 | 18.33° C | 91% | 990.6 hPa | 0 mm | - | - | - |
| 1777933109 | 18.33° C | 91% | 990.6 hPa | 0 mm | - | - | - |
| 1777932807 | 18.33° C | 91% | 990.6 hPa | 0 mm | - | - | - |
| 1777932508 | 18.33° C | 91% | 990.6 hPa | 0 mm | - | - | - |
| 1777932238 | 27.22° C | 61% | 981.8 hPa | 0 mm | - | - | - |
| 1777932206 | 18.33° C | 91% | 990.6 hPa | 0 mm | - | - | - |
| 1777931909 | 18.33° C | 91% | 990.6 hPa | 0 mm | - | - | - |
| 1777931608 | 27.22° C | 62% | 982.1 hPa | 0 mm | - | - | - |
| 1777931307 | 18.33° C | 91% | 990.6 hPa | 0 mm | - | - | - |
| 1777931158 | 18.33° C | 91% | 990.6 hPa | 0 mm | - | - | - |
* Rain latest hour (hover to see other rain measurements)
** Current wind speed in m/s (hover to see current wind gust speed)